GMT,Max TemperatureF,Mean TemperatureF,Min TemperatureF,Max Dew PointF,MeanDew PointF,Min DewpointF,Max Humidity, Mean Humidity, Min Humidity, Max Sea Level PressureIn, Mean Sea Level PressureIn, Min Sea Level PressureIn, Max VisibilityMiles, Mean VisibilityMiles, Min VisibilityMiles, Max Wind SpeedMPH, Mean Wind SpeedMPH, Max Gust SpeedMPH,PrecipitationIn, CloudCover, Events, WindDirDegrees
2012-12-1,41,36,30,37,33,28,99,84,63,29.96,29.91,29.86,18,7,3,21,10,,0.00,3,Rain,266
2012-12-2,39,34,29,32,30,27,94,82,68,30.02,30.00,29.95,13,7,6,17,13,,0.00,1,,289
2012-12-3,50,44,36,50,43,36,100,91,80,29.89,29.70,29.64,17,7,2,20,12,,0.16,4,Rain,261
2012-12-4,44,38,33,39,36,32,94,87,73,29.62,29.59,29.56,19,8,6,23,15,,0.01,3,Rain,280
2012-12-5,37,34,32,37,32,30,100,87,72,29.95,29.76,29.59,17,7,2,24,15,,0.20,5,Rain-Snow,328
2012-12-6,40,34,28,40,29,27,100,84,64,30.07,29.98,29.54,16,7,6,23,9,,0.20,2,Rain,231
2012-12-7,41,37,33,40,36,32,100,90,81,29.91,29.48,29.39,14,6,2,34,21,50,0.31,5,Rain-Snow,300
2012-12-8,42,38,35,37,35,30,100,83,65,30.30,30.22,30.03,17,7,5,16,12,,0.00,3,Rain,314
2012-12-9,47,43,39,42,40,36,100,83,66,30.19,30.00,29.92,17,8,6,23,15,,0.02,4,Rain,268
2012-12-10,41,39,37,37,35,32,93,83,77,30.31,30.15,29.99,19,8,6,24,20,,0.00,2,,340
2012-12-11,40,35,28,36,32,28,100,88,76,30.39,30.36,30.33,19,6,0,15,10,21,0.04,4,Fog-Rain-Snow,349
2012-12-12,48,36,24,34,28,24,100,84,61,30.29,30.10,29.94,19,7,0,9,5,,0.00,1,Fog,197
2012-12-13,35,32,29,32,28,24,93,86,70,29.86,29.69,29.62,9,5,3,9,5,,0.01,4,,152
2012-12-14,51,45,39,48,44,38,100,92,76,29.51,29.08,28.88,19,5,2,28,21,43,0.43,6,Fog-Rain,160
2012-12-15,49,46,43,46,45,41,93,88,81,29.48,29.36,29.20,13,6,4,23,17,,0.12,3,Rain,211
2012-12-16,49,45,41,45,42,39,93,89,75,29.59,29.56,29.51,15,8,6,13,8,,0.03,2,Rain,213
2012-12-17,47,43,39,43,40,36,93,86,72,29.70,29.61,29.52,19,8,6,16,9,,0.00,1,Rain,245
2012-12-18,43,41,39,43,41,37,93,91,83,30.14,29.97,29.75,8,5,3,17,12,,0.00,6,,314
2012-12-19,45,41,37,41,39,36,100,85,69,30.14,30.07,29.91,16,5,0,24,10,,0.01,3,Fog-Rain,140
2012-12-20,50,46,42,48,44,40,100,95,86,29.83,29.61,29.53,11,5,2,26,18,,0.24,6,Rain,161
2012-12-21,50,46,41,46,43,39,100,91,81,29.98,29.77,29.62,14,7,6,15,8,,0.00,2,,248
2012-12-22,54,49,44,54,48,42,100,96,90,29.95,29.67,29.56,11,5,2,23,15,,0.67,6,Rain,185
2012-12-23,55,52,47,52,49,44,94,85,75,29.75,29.66,29.59,12,7,6,23,16,,0.00,1,Rain,228
2012-12-24,54,50,46,52,48,44,100,87,74,29.73,29.48,29.33,14,7,1,34,18,48,0.01,4,Rain,204
2012-12-25,49,47,43,46,44,37,93,86,70,29.64,29.38,29.24,11,6,4,31,16,45,0.08,5,Rain,199
2012-12-26,49,43,37,46,42,36,93,85,71,29.77,29.71,29.56,11,7,4,26,13,,0.08,3,Rain,228
2012-12-27,47,44,41,45,41,38,93,89,73,30.12,29.61,29.44,13,6,3,26,14,,0.16,4,Rain,249
2012-12-28,52,46,39,50,47,37,100,93,79,30.18,30.06,29.95,9,6,2,23,12,,0.12,5,Rain,194
2012-12-29,51,48,43,48,45,40,94,83,71,29.88,29.64,29.53,16,7,2,33,25,48,0.01,3,Rain,195
2012-12-30,51,45,41,45,39,35,87,76,61,29.95,29.87,29.74,16,7,6,24,18,30,0.00,1,Rain,233
2012-12-31,52,49,46,49,47,43,91,85,76,29.88,29.67,29.52,7,6,4,37,28,50,0.04,6,Rain,208